Norwegian Breakaway — C6ZJ3 — position and weather

sailwx.info

Track history (hours):
 
Tides and Currents Weather Stations Pressure Air Temp Water Temp Dewpoint Dewpoint Depression Visibility Wind Speed Wind Dir Waves Ship Positions

Norwegian Breakaway

Last reported at 2020-Mar-17 12:59 UTC. Time now 2020-Apr-03 09:03 UTC.
Position N 28°23' W 080°33'.
Warning: this ship's position is 16 days out of date.

Length 325 m; draft 8.6 m.

Type: Passenger vessel. MMSI: 311050800.

Date/timePositionNaut miles runAvg speedWind from/ knotsBaromVisibWave heightAir tempDewpointWater temp
2020-Mar-17 12:59N 28°23' W 080°33'5 1.8
2020-Mar-17 10:27N 28°25' W 080°38'0 0.0
2020-Mar-17 09:30N 28°25' W 080°38'0 0.0
2020-Mar-17 06:24N 28°25' W 080°38'0 0.0
2020-Mar-17 06:00N 28°25' W 080°38'0 0.0
2020-Mar-17 03:30N 28°25' W 080°38'0 0.0
2020-Mar-17 00:57N 28°25' W 080°38'0 0.0
2020-Mar-16 22:48N 28°25' W 080°38'0 0.0
2020-Mar-16 21:21N 28°25' W 080°38'0 0.0
2020-Mar-16 19:27N 28°25' W 080°38'0 0.0
2020-Mar-16 17:21N 28°25' W 080°38'0 0.0
2020-Mar-16 11:57N 28°25' W 080°38'0 0.0
2020-Mar-16 06:57N 28°25' W 080°38'0 0.0
2020-Mar-16 06:21N 28°25' W 080°38'0 0.0
2020-Mar-16 05:54N 28°25' W 080°38'0 0.0
2020-Mar-16 05:30N 28°25' W 080°38'0 0.0
2020-Mar-16 03:24N 28°25' W 080°38'0 0.0
2020-Mar-15 22:30N 28°25' W 080°38'0 0.0
2020-Mar-15 21:51N 28°25' W 080°38'0 0.0
2020-Mar-15 21:03N 28°25' W 080°38'0 0.0
2020-Mar-15 21:00N 28°25' W 080°38'0 0.0
2020-Mar-15 19:54N 28°25' W 080°38'0 0.0
2020-Mar-15 13:57N 28°25' W 080°38'0 0.0
2020-Mar-15 10:57N 28°25' W 080°38'0 0.0
2020-Mar-15 09:51N 28°25' W 080°38'0 0.0
2020-Mar-15 08:54N 28°25' W 080°38'0 0.0
2020-Mar-15 03:24N 28°25' W 080°38'0 0.0
2020-Mar-15 02:27N 28°25' W 080°38'0 0.0
2020-Mar-15 00:42N 28°25' W 080°38'0 0.0
2020-Mar-14 22:30N 28°25' W 080°38'0 0.0
2020-Mar-14 21:15N 28°25' W 080°38'0 0.0
2020-Mar-14 20:48N 28°25' W 080°38'0 0.0
2020-Mar-14 19:57N 28°25' W 080°38'0 0.0
2020-Mar-14 19:15N 28°25' W 080°38'0 0.0
2020-Mar-14 15:57N 28°25' W 080°38'0 0.0
2020-Mar-14 13:54N 28°25' W 080°38'0 0.0
2020-Mar-14 10:30N 28°25' W 080°38'12 8.2
2020-Mar-14 08:59N 28°18' W 080°26'11018.3
2020-Mar-14 03:00N 26°36' W 079°42'1122.4
2020-Mar-14 02:30N 26°24' W 079°41'2222.3
2020-Mar-14 01:30N 26°03' W 079°46'51815.9
2020-Mar-12 17:00N 20°29' W 086°58'0 0.0
2020-Mar-12 16:00N 20°29' W 086°58'0 0.0
2020-Mar-12 15:00N 20°29' W 086°58'32018.8
2020-Mar-11 22:00N 19°16' W 081°27'3 1.7
2020-Mar-11 19:59N 19°18' W 081°24'0 0.0
2020-Mar-11 19:00N 19°18' W 081°24'0 0.0
2020-Mar-11 18:27N 19°18' W 081°24'0 0.0
2020-Mar-11 17:00N 19°18' W 081°24'0 0.0
2020-Mar-11 15:30N 19°18' W 081°24'0 0.0
2020-Mar-11 15:00N 19°18' W 081°24'20 4.5
2020-Mar-11 10:31N 19°10' W 081°04'  
2020-Mar-07 17:42N 28°25' W 080°38'0 0.0
2020-Mar-07 17:31N 28°25' W 080°38'0 0.0
2020-Mar-07 15:00N 28°25' W 080°38'0 0.0
2020-Mar-07 14:30N 28°25' W 080°38'0 0.0
2020-Mar-07 14:00N 28°25' W 080°38'0 0.0
2020-Mar-07 13:30N 28°25' W 080°38'  
Track history (hours):
 
Tides and Currents Weather Stations Pressure Air Temp Water Temp Dewpoint Dewpoint Depression Visibility Wind Speed Wind Dir Waves Ship Positions

Norwegian Breakaway

Last reported at 2020-Mar-17 12:59 UTC. Time now 2020-Apr-03 09:03 UTC.
Position N 28°23' W 080°33'.
Warning: this ship's position is 16 days out of date.

Length 325 m; draft 8.6 m.

Type: Passenger vessel. MMSI: 311050800.

Date/timePositionNaut miles runAvg speedWind from/ knotsBaromVisibWave heightAir tempDewpointWater temp
2020-Mar-17 12:59N 28°23' W 080°33'5 1.8
2020-Mar-17 10:27N 28°25' W 080°38'0 0.0
2020-Mar-17 09:30N 28°25' W 080°38'0 0.0
2020-Mar-17 06:24N 28°25' W 080°38'0 0.0
2020-Mar-17 06:00N 28°25' W 080°38'0 0.0
2020-Mar-17 03:30N 28°25' W 080°38'0 0.0
2020-Mar-17 00:57N 28°25' W 080°38'0 0.0
2020-Mar-16 22:48N 28°25' W 080°38'0 0.0
2020-Mar-16 21:21N 28°25' W 080°38'0 0.0
2020-Mar-16 19:27N 28°25' W 080°38'0 0.0
2020-Mar-16 17:21N 28°25' W 080°38'0 0.0
2020-Mar-16 11:57N 28°25' W 080°38'0 0.0
2020-Mar-16 06:57N 28°25' W 080°38'0 0.0
2020-Mar-16 06:21N 28°25' W 080°38'0 0.0
2020-Mar-16 05:54N 28°25' W 080°38'0 0.0
2020-Mar-16 05:30N 28°25' W 080°38'0 0.0
2020-Mar-16 03:24N 28°25' W 080°38'0 0.0
2020-Mar-15 22:30N 28°25' W 080°38'0 0.0
2020-Mar-15 21:51N 28°25' W 080°38'0 0.0
2020-Mar-15 21:03N 28°25' W 080°38'0 0.0
2020-Mar-15 21:00N 28°25' W 080°38'0 0.0
2020-Mar-15 19:54N 28°25' W 080°38'0 0.0
2020-Mar-15 13:57N 28°25' W 080°38'0 0.0
2020-Mar-15 10:57N 28°25' W 080°38'0 0.0
2020-Mar-15 09:51N 28°25' W 080°38'0 0.0
2020-Mar-15 08:54N 28°25' W 080°38'0 0.0
2020-Mar-15 03:24N 28°25' W 080°38'0 0.0
2020-Mar-15 02:27N 28°25' W 080°38'0 0.0
2020-Mar-15 00:42N 28°25' W 080°38'0 0.0
2020-Mar-14 22:30N 28°25' W 080°38'0 0.0
2020-Mar-14 21:15N 28°25' W 080°38'0 0.0
2020-Mar-14 20:48N 28°25' W 080°38'0 0.0
2020-Mar-14 19:57N 28°25' W 080°38'0 0.0
2020-Mar-14 19:15N 28°25' W 080°38'0 0.0
2020-Mar-14 15:57N 28°25' W 080°38'0 0.0
2020-Mar-14 13:54N 28°25' W 080°38'0 0.0
2020-Mar-14 10:30N 28°25' W 080°38'12 8.2
2020-Mar-14 08:59N 28°18' W 080°26'11018.3
2020-Mar-14 03:00N 26°36' W 079°42'1122.4
2020-Mar-14 02:30N 26°24' W 079°41'2222.3
2020-Mar-14 01:30N 26°03' W 079°46'51815.9
2020-Mar-12 17:00N 20°29' W 086°58'0 0.0
2020-Mar-12 16:00N 20°29' W 086°58'0 0.0
2020-Mar-12 15:00N 20°29' W 086°58'32018.8
2020-Mar-11 22:00N 19°16' W 081°27'3 1.7
2020-Mar-11 19:59N 19°18' W 081°24'0 0.0
2020-Mar-11 19:00N 19°18' W 081°24'0 0.0
2020-Mar-11 18:27N 19°18' W 081°24'0 0.0
2020-Mar-11 17:00N 19°18' W 081°24'0 0.0
2020-Mar-11 15:30N 19°18' W 081°24'0 0.0
2020-Mar-11 15:00N 19°18' W 081°24'20 4.5
2020-Mar-11 10:31N 19°10' W 081°04'  
2020-Mar-07 17:42N 28°25' W 080°38'0 0.0
2020-Mar-07 17:31N 28°25' W 080°38'0 0.0
2020-Mar-07 15:00N 28°25' W 080°38'0 0.0
2020-Mar-07 14:30N 28°25' W 080°38'0 0.0
2020-Mar-07 14:00N 28°25' W 080°38'0 0.0
2020-Mar-07 13:30N 28°25' W 080°38'  

Dump ship's entire track history